createdAt,value
2023-07-11T00:00:10.789Z,37.49
2023-07-11T00:01:10.852Z,37.52
2023-07-11T00:02:10.984Z,37.47
2023-07-11T00:03:11.025Z,37.50
2023-07-11T00:04:11.011Z,37.53
2023-07-11T00:05:11.010Z,37.52
2023-07-11T00:06:11.049Z,37.47
2023-07-11T00:07:11.093Z,37.53
2023-07-11T00:08:11.198Z,37.54
2023-07-11T00:09:11.182Z,37.49
2023-07-11T00:10:11.229Z,37.54
2023-07-11T00:11:11.262Z,37.54
2023-07-11T00:12:11.306Z,37.57
2023-07-11T00:13:11.293Z,37.54
2023-07-11T00:14:11.367Z,37.57
2023-07-11T00:15:11.287Z,37.54
2023-07-11T00:16:11.475Z,37.58
2023-07-11T00:17:11.291Z,37.52
2023-07-11T00:18:11.267Z,37.52
2023-07-11T00:19:11.255Z,37.51
2023-07-11T00:20:11.250Z,37.55
2023-07-11T00:21:11.235Z,37.52
2023-07-11T00:22:11.234Z,37.47
2023-07-11T00:23:11.222Z,37.54
2023-07-11T00:24:11.217Z,37.53
2023-07-11T00:25:11.211Z,37.55
2023-07-11T00:26:11.236Z,37.51
2023-07-11T00:27:11.286Z,37.54
2023-07-11T00:28:11.319Z,37.55
2023-07-11T00:29:11.374Z,37.57
2023-07-11T00:30:11.460Z,37.58
2023-07-11T00:31:11.602Z,37.58
2023-07-11T00:32:11.501Z,37.57
2023-07-11T00:33:11.551Z,37.59
2023-07-11T00:34:11.634Z,37.55
2023-07-11T00:35:11.647Z,37.55
2023-07-11T00:36:11.676Z,37.57
2023-07-11T00:37:11.728Z,37.55
2023-07-11T00:38:11.789Z,37.55
2023-07-11T00:39:11.825Z,37.55
2023-07-11T00:40:11.863Z,37.55
2023-07-11T00:41:11.899Z,37.61
2023-07-11T00:42:11.954Z,37.55
2023-07-11T00:43:11.998Z,37.55
2023-07-11T00:44:12.050Z,37.58
2023-07-11T00:45:12.099Z,37.53
2023-07-11T00:46:12.308Z,37.59
2023-07-11T00:47:12.211Z,37.55
2023-07-11T00:48:12.241Z,37.56
2023-07-11T00:49:12.291Z,37.53
2023-07-11T00:50:12.342Z,37.52
2023-07-11T00:51:12.374Z,37.55
2023-07-11T00:52:12.432Z,37.56
2023-07-11T00:53:12.477Z,37.58
2023-07-11T00:54:12.524Z,37.56
2023-07-11T00:55:12.567Z,37.54
2023-07-11T00:56:12.625Z,37.54
2023-07-11T00:57:12.665Z,37.55
2023-07-11T00:58:12.727Z,37.56
2023-07-11T00:59:12.774Z,37.57
2023-07-11T01:00:12.827Z,37.60
2023-07-11T01:01:12.925Z,37.57
2023-07-11T01:02:12.926Z,37.56
2023-07-11T01:03:13.098Z,37.60
2023-07-11T01:04:13.104Z,37.59
2023-07-11T01:05:13.085Z,37.54
2023-07-11T01:06:13.141Z,37.52
2023-07-11T01:07:13.190Z,37.58
2023-07-11T01:08:13.240Z,37.56
2023-07-11T01:09:13.284Z,37.56
2023-07-11T01:10:13.335Z,37.53
2023-07-11T01:11:13.389Z,37.61
2023-07-11T01:12:13.444Z,37.58
2023-07-11T01:13:13.507Z,37.57
2023-07-11T01:14:13.638Z,37.58
2023-07-11T01:15:13.608Z,37.56
2023-07-11T01:16:13.678Z,37.55
2023-07-11T01:17:13.709Z,37.57
2023-07-11T01:18:13.774Z,37.57
2023-07-11T01:19:13.821Z,37.58
2023-07-11T01:20:13.872Z,37.61
2023-07-11T01:21:13.915Z,37.60
2023-07-11T01:22:13.971Z,37.57
2023-07-11T01:23:14.034Z,37.60
2023-07-11T01:24:14.083Z,37.61
2023-07-11T01:25:14.163Z,37.55
2023-07-11T01:26:14.189Z,37.58
2023-07-11T01:27:14.238Z,37.65
2023-07-11T01:28:14.561Z,37.55
2023-07-11T01:29:14.330Z,37.58
2023-07-11T01:30:14.378Z,37.55
2023-07-11T01:31:14.429Z,37.60
2023-07-11T01:32:14.482Z,37.60
2023-07-11T01:33:14.530Z,37.58
2023-07-11T01:34:14.572Z,37.61
2023-07-11T01:35:14.614Z,37.54
2023-07-11T01:36:14.663Z,37.55
2023-07-11T01:37:14.735Z,37.62
2023-07-11T01:38:14.754Z,37.60
2023-07-11T01:39:14.796Z,37.59
2023-07-11T01:40:14.858Z,37.64
2023-07-11T01:41:14.888Z,37.58
2023-07-11T01:42:14.941Z,37.59
2023-07-11T01:43:14.990Z,37.58
2023-07-11T01:44:15.053Z,37.57
2023-07-11T01:45:15.096Z,37.58
2023-07-11T01:46:15.170Z,37.62
2023-07-11T01:47:15.197Z,37.59
2023-07-11T01:48:15.268Z,37.65
2023-07-11T01:49:15.306Z,37.59
2023-07-11T01:50:15.369Z,37.62
2023-07-11T01:51:15.411Z,37.57
2023-07-11T01:52:15.467Z,37.65
2023-07-11T01:53:15.513Z,37.58
2023-07-11T01:54:15.556Z,37.58
2023-07-11T01:55:15.611Z,37.58
2023-07-11T01:56:15.659Z,37.62
2023-07-11T01:57:15.720Z,37.58
2023-07-11T01:58:15.765Z,37.59
2023-07-11T01:59:15.812Z,37.61
2023-07-11T02:00:15.867Z,37.55
2023-07-11T02:01:15.944Z,37.59
2023-07-11T02:02:15.981Z,37.59
2023-07-11T02:03:16.162Z,37.59
2023-07-11T02:04:16.075Z,37.55
2023-07-11T02:05:16.119Z,37.62
2023-07-11T02:06:16.125Z,37.59
2023-07-11T02:07:16.131Z,37.59
2023-07-11T02:08:16.127Z,37.59
2023-07-11T02:09:16.129Z,37.59
2023-07-11T02:10:16.136Z,37.60
2023-07-11T02:11:16.150Z,37.59
2023-07-11T02:12:16.149Z,37.60
2023-07-11T02:13:16.141Z,37.56
2023-07-11T02:14:16.192Z,37.56
2023-07-11T02:15:16.133Z,37.59
2023-07-11T02:16:16.216Z,37.59
2023-07-11T02:17:16.385Z,37.53
2023-07-11T02:18:16.179Z,37.62
2023-07-11T02:19:16.171Z,37.59
2023-07-11T02:20:16.225Z,37.59
2023-07-11T02:21:16.288Z,37.59
2023-07-11T02:22:16.322Z,37.57
2023-07-11T02:23:16.431Z,37.57
2023-07-11T02:24:16.417Z,37.53
2023-07-11T02:25:16.461Z,37.56
2023-07-11T02:26:16.507Z,37.57
2023-07-11T02:27:16.560Z,37.59
2023-07-11T02:28:16.611Z,37.59
2023-07-11T02:29:16.654Z,37.52
2023-07-11T02:30:16.709Z,37.54
2023-07-11T02:31:16.767Z,37.56
2023-07-11T02:32:16.791Z,37.53
2023-07-11T02:33:16.844Z,37.54
2023-07-11T02:34:16.890Z,37.63
2023-07-11T02:35:16.923Z,37.57
2023-07-11T02:36:16.990Z,37.56
2023-07-11T02:37:17.023Z,37.54
2023-07-11T02:38:17.077Z,37.54
2023-07-11T02:39:17.124Z,37.55
2023-07-11T02:40:17.173Z,37.57
2023-07-11T02:41:17.213Z,37.52
2023-07-11T02:42:17.266Z,37.56
2023-07-11T02:43:17.308Z,37.59
2023-07-11T02:44:17.353Z,37.59
2023-07-11T02:45:17.404Z,37.54
2023-07-11T02:46:17.500Z,37.49
2023-07-11T02:47:17.501Z,37.49
2023-07-11T02:48:17.542Z,37.46
2023-07-11T02:49:17.596Z,37.47
2023-07-11T02:50:17.649Z,37.50
2023-07-11T02:51:17.697Z,37.51
2023-07-11T02:52:17.768Z,37.47
2023-07-11T02:53:17.815Z,37.50
2023-07-11T02:54:17.864Z,37.47
2023-07-11T02:55:17.933Z,37.49
2023-07-11T02:56:17.971Z,37.46
2023-07-11T02:57:18.039Z,37.41
2023-07-11T02:58:18.088Z,37.43
2023-07-11T02:59:18.094Z,37.44
2023-07-11T03:00:18.090Z,37.43
2023-07-11T03:01:18.163Z,37.47
2023-07-11T03:02:18.105Z,37.41
2023-07-11T03:03:18.119Z,37.39
2023-07-11T03:04:18.121Z,37.44
2023-07-11T03:05:18.148Z,37.44
2023-07-11T03:06:18.103Z,37.44
2023-07-11T03:07:18.245Z,37.42
2023-07-11T03:08:18.121Z,37.27
2023-07-11T03:09:18.136Z,37.22
2023-07-11T03:10:18.128Z,37.27
2023-07-11T03:11:18.171Z,37.22
2023-07-11T03:12:18.237Z,37.24
2023-07-11T03:13:18.246Z,37.22
2023-07-11T03:14:18.295Z,37.25
2023-07-11T03:15:18.263Z,37.26
2023-07-11T03:16:18.267Z,37.28
2023-07-11T03:17:18.321Z,37.37
2023-07-11T03:18:18.285Z,37.38
2023-07-11T03:19:18.290Z,37.42
2023-07-11T03:20:18.292Z,37.45
2023-07-11T03:21:18.302Z,37.51
2023-07-11T03:22:18.320Z,37.57
2023-07-11T03:23:18.335Z,37.65
2023-07-11T03:24:18.336Z,37.69
2023-07-11T03:25:18.403Z,37.77
2023-07-11T03:26:18.475Z,37.81
2023-07-11T03:27:18.543Z,37.84
2023-07-11T03:28:18.610Z,37.91
2023-07-11T03:29:18.700Z,37.97
2023-07-11T03:30:18.752Z,37.96
2023-07-11T03:31:18.877Z,38.06
2023-07-11T03:32:18.891Z,38.05
2023-07-11T03:33:18.969Z,38.11
2023-07-11T03:34:19.046Z,38.13
2023-07-11T03:35:19.108Z,38.15
2023-07-11T03:36:19.129Z,38.27
2023-07-11T03:37:19.127Z,38.34
2023-07-11T03:38:19.164Z,38.36
2023-07-11T03:39:19.155Z,38.42
2023-07-11T03:40:19.145Z,38.45
2023-07-11T03:41:19.160Z,38.46
2023-07-11T03:42:19.196Z,38.46
2023-07-11T03:43:19.177Z,38.46
2023-07-11T03:44:19.191Z,38.40
2023-07-11T03:45:19.277Z,38.47
2023-07-11T03:46:19.391Z,38.49
2023-07-11T03:47:19.424Z,38.54
2023-07-11T03:48:19.499Z,38.58
2023-07-11T03:49:19.564Z,38.56
2023-07-11T03:50:19.640Z,38.52
2023-07-11T03:51:19.716Z,38.57
2023-07-11T03:52:19.797Z,38.63
2023-07-11T03:53:19.891Z,38.66
2023-07-11T03:54:19.877Z,38.66
2023-07-11T03:55:19.886Z,38.67
2023-07-11T03:56:19.885Z,38.71
2023-07-11T03:57:19.902Z,38.69
2023-07-11T03:58:19.910Z,38.67
2023-07-11T03:59:19.929Z,38.65
2023-07-11T04:00:19.928Z,38.67
2023-07-11T04:01:19.984Z,38.73
2023-07-11T04:02:19.993Z,38.71
2023-07-11T04:03:20.143Z,38.77
2023-07-11T04:04:20.155Z,38.84
2023-07-11T04:05:20.246Z,38.80
2023-07-11T04:06:20.293Z,38.85
2023-07-11T04:07:20.362Z,38.80
2023-07-11T04:08:20.425Z,38.82
2023-07-11T04:09:20.503Z,38.80
2023-07-11T04:10:20.571Z,38.86
2023-07-11T04:11:20.631Z,38.85
2023-07-11T04:12:20.713Z,38.94
2023-07-11T04:13:20.788Z,38.94
2023-07-11T04:14:20.840Z,38.98
2023-07-11T04:15:20.899Z,38.99
2023-07-11T04:16:20.954Z,38.99
2023-07-11T04:17:21.070Z,38.98
2023-07-11T04:18:21.149Z,39.00
2023-07-11T04:19:21.472Z,39.07
2023-07-11T04:20:21.187Z,39.03
2023-07-11T04:21:21.241Z,39.10
2023-07-11T04:22:21.337Z,39.16
2023-07-11T04:23:21.434Z,39.14
2023-07-11T04:24:21.512Z,39.15
2023-07-11T04:25:21.539Z,39.14
2023-07-11T04:26:21.542Z,39.18
2023-07-11T04:27:21.554Z,39.22
2023-07-11T04:28:21.580Z,39.26
2023-07-11T04:29:21.593Z,39.20
2023-07-11T04:30:21.614Z,39.19
2023-07-11T04:31:21.742Z,39.24
2023-07-11T04:32:21.677Z,39.30
2023-07-11T04:33:21.654Z,39.23
2023-07-11T04:34:21.672Z,39.27
2023-07-11T04:35:21.708Z,39.35
2023-07-11T04:36:21.704Z,39.34
2023-07-11T04:37:21.744Z,39.30
2023-07-11T04:38:21.746Z,39.38
2023-07-11T04:39:21.776Z,39.37
2023-07-11T04:40:21.804Z,39.42
2023-07-11T04:41:21.835Z,39.43
2023-07-11T04:42:21.877Z,39.45
2023-07-11T04:43:21.928Z,39.42
2023-07-11T04:44:21.983Z,39.53
2023-07-11T04:45:21.992Z,39.47
2023-07-11T04:46:22.101Z,39.52
2023-07-11T04:47:22.049Z,39.56
2023-07-11T04:48:22.066Z,39.52
2023-07-11T04:49:22.090Z,39.52
2023-07-11T04:50:22.135Z,39.55
2023-07-11T04:51:22.202Z,39.52
2023-07-11T04:52:22.213Z,39.55
2023-07-11T04:53:22.250Z,39.50
2023-07-11T04:54:22.405Z,39.63
2023-07-11T04:55:22.289Z,39.60
2023-07-11T04:56:22.322Z,39.65
2023-07-11T04:57:22.365Z,39.61
2023-07-11T04:58:22.418Z,39.65
2023-07-11T04:59:22.431Z,39.66
2023-07-11T05:00:22.443Z,39.68
2023-07-11T05:01:22.988Z,39.67
2023-07-11T05:02:22.598Z,39.68
2023-07-11T05:03:22.518Z,39.79
2023-07-11T05:04:22.745Z,39.73
2023-07-11T05:05:22.595Z,39.79
2023-07-11T05:06:22.599Z,39.82
2023-07-11T05:07:22.629Z,39.86
2023-07-11T05:08:22.654Z,39.90
2023-07-11T05:09:22.669Z,39.88
2023-07-11T05:10:22.687Z,39.88
2023-07-11T05:11:22.709Z,39.95
2023-07-11T05:12:22.743Z,39.88
2023-07-11T05:13:22.754Z,39.87
2023-07-11T05:14:22.779Z,39.89
2023-07-11T05:15:22.838Z,39.92
2023-07-11T05:16:22.978Z,39.96
2023-07-11T05:17:22.902Z,40.01
2023-07-11T05:18:22.866Z,40.01
2023-07-11T05:19:22.867Z,39.98
2023-07-11T05:20:22.894Z,40.09
2023-07-11T05:21:22.921Z,40.06
2023-07-11T05:22:22.939Z,40.02
2023-07-11T05:23:22.935Z,40.09
2023-07-11T05:24:22.949Z,40.09
2023-07-11T05:25:22.958Z,40.13
2023-07-11T05:26:22.967Z,40.14
2023-07-11T05:27:22.984Z,40.17
2023-07-11T05:28:22.998Z,40.14
2023-07-11T05:29:23.008Z,40.15
2023-07-11T05:30:23.017Z,40.09
2023-07-11T05:31:23.156Z,40.13
2023-07-11T05:32:23.076Z,40.14
2023-07-11T05:33:23.066Z,40.16
2023-07-11T05:34:23.082Z,40.20
2023-07-11T05:35:23.095Z,40.26
2023-07-11T05:36:23.104Z,40.23
2023-07-11T05:37:23.130Z,40.24
2023-07-11T05:38:23.138Z,40.29
2023-07-11T05:39:23.156Z,40.30
2023-07-11T05:40:24.956Z,40.27
2023-07-11T05:41:23.178Z,40.34
2023-07-11T05:42:23.195Z,40.32
2023-07-11T05:43:23.210Z,40.34
2023-07-11T05:44:23.216Z,40.40
2023-07-11T05:45:23.230Z,40.41
2023-07-11T05:46:23.293Z,40.36
2023-07-11T05:47:23.402Z,40.40
2023-07-11T05:48:23.272Z,40.42
2023-07-11T05:49:23.292Z,40.39
2023-07-11T05:50:23.309Z,40.47
2023-07-11T05:51:23.330Z,40.55
2023-07-11T05:52:23.330Z,40.58
2023-07-11T05:53:23.355Z,40.52
2023-07-11T05:54:23.353Z,40.64
2023-07-11T05:55:23.370Z,40.63
2023-07-11T05:56:23.383Z,40.56
2023-07-11T05:57:23.415Z,40.59
2023-07-11T05:58:23.417Z,40.70
2023-07-11T05:59:23.432Z,40.70
2023-07-11T06:00:23.448Z,40.73
2023-07-11T06:01:23.483Z,40.66
2023-07-11T06:02:23.496Z,40.62
2023-07-11T06:03:23.523Z,40.59
2023-07-11T06:04:23.520Z,40.58
2023-07-11T06:05:23.525Z,40.49
2023-07-11T06:06:23.530Z,40.39
2023-07-11T06:07:23.547Z,40.34
2023-07-11T06:08:23.563Z,40.24
2023-07-11T06:09:23.580Z,40.18
2023-07-11T06:10:23.584Z,40.14
2023-07-11T06:11:23.604Z,40.02
2023-07-11T06:12:23.607Z,40.01
2023-07-11T06:13:23.640Z,39.92
2023-07-11T06:14:23.685Z,39.92
2023-07-11T06:15:23.651Z,39.87
2023-07-11T06:16:23.686Z,39.83
2023-07-11T06:17:23.688Z,39.75
2023-07-11T06:18:23.731Z,39.70
2023-07-11T06:19:23.766Z,39.62
2023-07-11T06:20:23.789Z,39.65
2023-07-11T06:21:23.820Z,39.68
2023-07-11T06:22:23.891Z,39.61
2023-07-11T06:23:23.961Z,39.65
2023-07-11T06:24:24.000Z,39.65
2023-07-11T06:25:24.071Z,39.65
2023-07-11T06:26:24.142Z,39.58
2023-07-11T06:27:24.210Z,39.54
2023-07-11T06:28:24.266Z,39.54
2023-07-11T06:29:24.338Z,39.46
2023-07-11T06:30:24.410Z,39.50
2023-07-11T06:31:24.535Z,39.47
2023-07-11T06:32:24.582Z,39.48
2023-07-11T06:33:24.660Z,39.54
2023-07-11T06:34:24.731Z,39.57
2023-07-11T06:35:24.811Z,39.58
2023-07-11T06:36:24.893Z,39.56
2023-07-11T06:37:24.974Z,39.62
2023-07-11T06:38:25.052Z,39.60
2023-07-11T06:39:25.128Z,39.59
2023-07-11T06:40:25.189Z,39.78
2023-07-11T06:41:25.284Z,39.81
2023-07-11T06:42:25.353Z,40.02
2023-07-11T06:43:25.439Z,40.09
2023-07-11T06:44:25.499Z,40.28
2023-07-11T06:45:25.598Z,40.24
2023-07-11T06:46:25.678Z,40.31
2023-07-11T06:47:25.780Z,40.47
2023-07-11T06:48:25.798Z,40.43
2023-07-11T06:49:25.876Z,40.46
2023-07-11T06:50:26.417Z,40.59
2023-07-11T06:51:26.014Z,40.85
2023-07-11T06:52:26.065Z,40.91
2023-07-11T06:53:26.138Z,41.03
2023-07-11T06:54:26.201Z,41.15
2023-07-11T06:55:26.278Z,41.26
2023-07-11T06:56:26.366Z,41.25
2023-07-11T06:57:26.432Z,41.21
2023-07-11T06:58:26.501Z,41.22
2023-07-11T06:59:26.565Z,41.16
2023-07-11T07:00:26.640Z,41.19
2023-07-11T07:01:36.768Z,41.14
2023-07-11T07:02:27.771Z,41.19
2023-07-11T07:03:26.802Z,41.29
2023-07-11T07:04:26.734Z,41.10
2023-07-11T07:05:26.717Z,41.07
2023-07-11T07:06:26.731Z,41.07
2023-07-11T07:07:26.712Z,41.13
2023-07-11T07:08:26.734Z,41.02
2023-07-11T07:09:27.829Z,40.77
2023-07-11T07:10:26.722Z,40.94
2023-07-11T07:11:26.786Z,41.64
2023-07-11T07:12:26.800Z,43.83
2023-07-11T07:13:26.850Z,43.45
2023-07-11T07:14:26.956Z,44.68
2023-07-11T07:15:26.963Z,46.75
2023-07-11T07:16:27.051Z,46.62
2023-07-11T07:17:27.109Z,47.67
2023-07-11T07:18:27.133Z,48.55
2023-07-11T07:19:27.197Z,46.44
2023-07-11T07:20:27.255Z,45.69
2023-07-11T07:21:27.308Z,45.35
2023-07-11T07:22:27.387Z,45.61
2023-07-11T07:23:27.785Z,46.24
2023-07-11T07:24:27.478Z,46.16
2023-07-11T07:25:27.580Z,46.22
2023-07-11T07:26:27.616Z,45.89
2023-07-11T07:27:29.197Z,45.83
2023-07-11T07:28:27.751Z,45.27
2023-07-11T07:29:27.763Z,45.17
2023-07-11T07:30:27.828Z,44.67
2023-07-11T07:31:27.920Z,44.52
2023-07-11T07:32:27.998Z,44.52
2023-07-11T07:33:27.959Z,44.38
2023-07-11T07:34:29.999Z,44.37
2023-07-11T07:35:27.923Z,44.29
2023-07-11T07:36:27.937Z,44.17
2023-07-11T07:37:27.933Z,44.08
2023-07-11T07:38:27.942Z,44.09
2023-07-11T07:39:27.935Z,44.06
2023-07-11T07:40:27.944Z,43.98
2023-07-11T07:41:27.951Z,43.89
2023-07-11T07:42:28.014Z,43.76
2023-07-11T07:43:28.112Z,43.64
2023-07-11T07:44:28.117Z,43.54
2023-07-11T07:45:28.166Z,43.50
2023-07-11T07:46:28.236Z,43.35
2023-07-11T07:47:28.292Z,43.18
2023-07-11T07:48:28.334Z,43.10
2023-07-11T07:49:29.521Z,43.04
2023-07-11T07:50:28.346Z,42.91
2023-07-11T07:51:28.337Z,42.85
2023-07-11T07:52:28.338Z,42.75
2023-07-11T07:53:28.333Z,42.75
2023-07-11T07:54:28.316Z,42.70
2023-07-11T07:55:28.316Z,42.60
2023-07-11T07:56:28.319Z,42.62
2023-07-11T07:57:28.321Z,42.45
2023-07-11T07:58:42.208Z,42.40
2023-07-11T07:59:29.309Z,42.33
2023-07-11T08:00:28.308Z,42.23
2023-07-11T08:01:28.295Z,42.19
2023-07-11T08:02:28.650Z,42.14
2023-07-11T08:03:28.362Z,42.00
2023-07-11T08:04:28.291Z,42.02
2023-07-11T08:05:28.258Z,41.95
2023-07-11T08:06:28.284Z,41.87
2023-07-11T08:07:28.247Z,41.81
2023-07-11T08:08:28.267Z,41.73
2023-07-11T08:09:28.254Z,41.71
2023-07-11T08:10:28.232Z,41.69
2023-07-11T08:11:28.212Z,41.68
2023-07-11T08:12:28.210Z,41.57
2023-07-11T08:13:30.131Z,41.57
2023-07-11T08:14:28.246Z,41.44
2023-07-11T08:15:28.198Z,41.38
2023-07-11T08:16:31.748Z,41.35
2023-07-11T08:17:29.339Z,41.37
2023-07-11T08:18:28.188Z,41.27
2023-07-11T08:19:28.180Z,41.23
2023-07-11T08:20:28.178Z,41.21
2023-07-11T08:21:28.217Z,41.18
2023-07-11T08:22:28.171Z,41.18
2023-07-11T08:23:28.168Z,41.09
2023-07-11T08:24:28.170Z,41.05
2023-07-11T08:25:28.163Z,41.07
2023-07-11T08:26:28.168Z,41.40
2023-07-11T08:27:28.169Z,41.61
2023-07-11T08:28:28.159Z,41.56
2023-07-11T08:29:30.251Z,41.50
2023-07-11T08:30:28.177Z,41.35
2023-07-11T08:31:28.183Z,41.26
2023-07-11T08:32:28.171Z,41.17
2023-07-11T08:33:28.124Z,41.14
2023-07-11T08:34:28.111Z,41.18
2023-07-11T08:35:28.080Z,41.10
2023-07-11T08:36:28.076Z,40.95
2023-07-11T08:37:28.070Z,40.85
2023-07-11T08:38:28.051Z,40.90
2023-07-11T08:39:28.027Z,40.91
2023-07-11T08:40:41.989Z,40.88
2023-07-11T08:41:29.011Z,40.84
2023-07-11T08:42:28.011Z,40.84
2023-07-11T08:43:28.010Z,40.68
2023-07-11T08:44:27.983Z,40.73
2023-07-11T08:45:27.959Z,40.71
2023-07-11T08:46:27.987Z,40.78
2023-07-11T08:47:27.976Z,40.75
2023-07-11T08:48:27.924Z,40.68
2023-07-11T08:49:27.893Z,40.63
2023-07-11T08:50:27.886Z,40.70
2023-07-11T08:51:27.883Z,40.74
2023-07-11T08:52:27.840Z,40.83
2023-07-11T08:53:27.826Z,40.83
2023-07-11T08:54:27.834Z,40.78
2023-07-11T08:55:27.804Z,40.82
2023-07-11T08:56:27.781Z,40.86
2023-07-11T08:57:27.778Z,40.87
2023-07-11T08:58:27.752Z,40.82
2023-07-11T08:59:27.742Z,40.89
2023-07-11T09:00:27.727Z,40.92
2023-07-11T09:01:27.714Z,40.90
2023-07-11T09:02:27.760Z,40.80
2023-07-11T09:03:27.839Z,40.70
2023-07-11T09:04:27.677Z,40.72
2023-07-11T09:05:27.672Z,40.77
2023-07-11T09:06:27.645Z,40.83
2023-07-11T09:07:27.641Z,40.68
2023-07-11T09:08:27.629Z,40.65
2023-07-11T09:09:27.626Z,40.58
2023-07-11T09:10:42.356Z,40.59
2023-07-11T09:11:28.602Z,40.61
2023-07-11T09:12:27.579Z,40.50
2023-07-11T09:13:27.755Z,40.32
2023-07-11T09:14:27.579Z,40.27
2023-07-11T09:15:27.566Z,40.16
2023-07-11T09:16:27.576Z,40.15
2023-07-11T09:17:27.574Z,40.16
2023-07-11T09:18:27.530Z,40.05
2023-07-11T09:19:27.514Z,39.95
2023-07-11T09:20:27.494Z,39.86
2023-07-11T09:21:27.492Z,39.80
2023-07-11T09:22:27.630Z,39.80
2023-07-11T09:23:38.025Z,39.75
2023-07-11T09:24:28.466Z,39.80
2023-07-11T09:25:28.293Z,39.71
2023-07-11T09:26:27.469Z,39.54
2023-07-11T09:27:27.429Z,39.50
2023-07-11T09:28:27.400Z,39.46
2023-07-11T09:29:27.397Z,39.55
2023-07-11T09:30:27.376Z,39.54
2023-07-11T09:31:27.429Z,39.43
2023-07-11T09:32:27.440Z,39.38
2023-07-11T09:33:27.393Z,39.38
2023-07-11T09:34:27.314Z,39.88
2023-07-11T09:35:27.335Z,39.46
2023-07-11T09:36:27.279Z,39.25
2023-07-11T09:37:27.270Z,39.73
2023-07-11T09:38:27.257Z,39.76
2023-07-11T09:39:27.253Z,39.95
2023-07-11T09:40:27.255Z,40.03
2023-07-11T09:41:37.423Z,40.16
2023-07-11T09:42:28.209Z,40.12
2023-07-11T09:43:27.219Z,40.03
2023-07-11T09:44:27.189Z,39.80
2023-07-11T09:45:27.210Z,39.83
2023-07-11T09:46:27.230Z,39.91
2023-07-11T09:47:27.242Z,39.90
2023-07-11T09:48:27.162Z,39.89
2023-07-11T09:49:27.130Z,39.74
2023-07-11T09:50:39.283Z,39.51
2023-07-11T09:51:28.117Z,39.45
2023-07-11T09:52:27.096Z,39.32
2023-07-11T09:53:27.078Z,39.08
2023-07-11T09:54:27.097Z,39.07
2023-07-11T09:55:27.064Z,39.00
2023-07-11T09:56:27.038Z,38.76
2023-07-11T09:57:27.036Z,38.71
2023-07-11T09:58:27.023Z,38.68
2023-07-11T09:59:27.897Z,38.47
2023-07-11T10:00:27.046Z,38.26
2023-07-11T10:01:27.030Z,38.26
2023-07-11T10:02:27.027Z,38.23
2023-07-11T10:03:26.960Z,38.26
2023-07-11T10:04:26.984Z,38.07
2023-07-11T10:05:26.943Z,38.16
2023-07-11T10:06:38.872Z,37.92
2023-07-11T10:07:27.905Z,37.68
2023-07-11T10:08:26.898Z,37.73
2023-07-11T10:09:26.889Z,37.79
2023-07-11T10:10:26.899Z,37.84
2023-07-11T10:11:26.872Z,37.83
2023-07-11T10:12:26.863Z,37.82
2023-07-11T10:13:37.893Z,37.70
2023-07-11T10:14:27.978Z,37.69
2023-07-11T10:15:26.832Z,37.67
2023-07-11T10:16:26.806Z,37.51
2023-07-11T10:17:26.952Z,37.53
2023-07-11T10:18:26.806Z,37.49
2023-07-11T10:19:26.742Z,37.47
2023-07-11T10:20:26.737Z,37.53
2023-07-11T10:21:31.914Z,37.58
2023-07-11T10:22:27.895Z,37.78
2023-07-11T10:23:26.668Z,37.83
2023-07-11T10:24:26.679Z,37.84
2023-07-11T10:25:26.647Z,37.86
2023-07-11T10:26:26.668Z,37.84
2023-07-11T10:27:26.618Z,37.84
2023-07-11T10:28:26.607Z,37.90
2023-07-11T10:29:26.609Z,37.91
2023-07-11T10:30:26.595Z,37.92
2023-07-11T10:31:26.641Z,37.97
2023-07-11T10:32:26.595Z,37.93
2023-07-11T10:33:30.878Z,37.94
2023-07-11T10:34:27.547Z,37.93
2023-07-11T10:35:26.522Z,37.96
2023-07-11T10:36:26.523Z,37.98
2023-07-11T10:37:26.524Z,37.97
2023-07-11T10:38:26.487Z,37.98
2023-07-11T10:39:26.477Z,37.95
2023-07-11T10:40:27.928Z,38.03
2023-07-11T10:41:26.446Z,37.96
2023-07-11T10:42:26.426Z,37.94
2023-07-11T10:43:26.432Z,37.95
2023-07-11T10:44:26.397Z,37.97
2023-07-11T10:45:26.390Z,37.97
2023-07-11T10:46:26.409Z,38.05
2023-07-11T10:47:26.396Z,38.02
2023-07-11T10:48:26.343Z,38.04
2023-07-11T10:49:26.341Z,38.00
2023-07-11T10:50:26.312Z,38.02
2023-07-11T10:51:27.646Z,38.01
2023-07-11T10:52:26.259Z,38.00
2023-07-11T10:53:26.243Z,38.04
2023-07-11T10:54:26.233Z,38.04
2023-07-11T10:55:26.224Z,38.02
2023-07-11T10:56:26.185Z,38.04
2023-07-11T10:57:33.934Z,38.05
2023-07-11T10:58:27.157Z,38.11
2023-07-11T10:59:26.138Z,38.08
2023-07-11T11:00:26.122Z,38.04
2023-07-11T11:01:26.156Z,38.02
2023-07-11T11:02:26.161Z,38.04
2023-07-11T11:03:27.509Z,37.98
2023-07-11T11:04:26.075Z,38.04
2023-07-11T11:05:26.075Z,38.02
2023-07-11T11:06:27.509Z,37.97
2023-07-11T11:07:25.991Z,37.95
2023-07-11T11:08:25.966Z,37.94
2023-07-11T11:09:25.970Z,37.95
2023-07-11T11:10:25.931Z,37.97
2023-07-11T11:11:25.912Z,37.93
2023-07-11T11:12:25.904Z,37.95
2023-07-11T11:13:27.198Z,37.92
2023-07-11T11:14:25.880Z,37.92
2023-07-11T11:15:25.848Z,37.91
2023-07-11T11:17:25.853Z,37.87
2023-07-11T11:18:25.864Z,37.88
2023-07-11T11:19:25.851Z,37.85
2023-07-11T11:20:25.770Z,37.90
2023-07-11T11:21:27.878Z,37.88
2023-07-11T11:22:25.722Z,37.87
2023-07-11T11:23:25.718Z,37.83
2023-07-11T11:24:25.689Z,37.83
2023-07-11T11:25:27.991Z,37.81
2023-07-11T11:26:26.650Z,37.86
2023-07-11T11:27:25.635Z,37.85
2023-07-11T11:28:25.623Z,37.79
2023-07-11T11:29:25.601Z,37.75
2023-07-11T11:30:25.737Z,37.78
2023-07-11T11:31:25.713Z,37.75
2023-07-11T11:32:25.550Z,37.75
2023-07-11T11:33:25.533Z,37.77
2023-07-11T11:34:25.499Z,37.73
2023-07-11T11:35:25.480Z,37.73
2023-07-11T11:36:25.473Z,37.68
2023-07-11T11:37:25.448Z,37.73
2023-07-11T11:38:25.452Z,37.69
2023-07-11T11:39:25.518Z,37.64
2023-07-11T11:40:25.545Z,37.66
2023-07-11T11:41:25.558Z,37.64
2023-07-11T11:42:25.548Z,37.63
2023-07-11T11:43:29.304Z,37.68
2023-07-11T11:46:28.339Z,37.56
2023-07-11T11:49:41.622Z,37.57
2023-07-11T11:50:55.866Z,37.56
2023-07-11T11:51:26.378Z,37.55
2023-07-11T11:53:25.267Z,37.58
2023-07-11T11:54:25.238Z,37.55
2023-07-11T11:55:25.234Z,37.59
2023-07-11T11:56:25.570Z,37.54
2023-07-11T11:57:25.179Z,37.57
2023-07-11T11:58:25.369Z,37.56
2023-07-11T11:59:25.142Z,37.50
2023-07-11T12:00:25.107Z,37.53
2023-07-11T12:01:25.101Z,37.51
2023-07-11T12:02:25.138Z,37.47
2023-07-11T12:03:25.038Z,37.54
2023-07-11T12:04:25.158Z,37.50
2023-07-11T12:05:25.009Z,37.53
2023-07-11T12:06:24.971Z,37.50
2023-07-11T12:07:24.951Z,37.50
2023-07-11T12:08:24.937Z,37.53
2023-07-11T12:09:24.911Z,37.61
2023-07-11T12:10:24.891Z,37.72
2023-07-11T12:11:24.877Z,37.89
2023-07-11T12:12:24.845Z,37.89
2023-07-11T12:13:24.827Z,37.79
2023-07-11T12:14:24.834Z,37.78
2023-07-11T12:15:24.807Z,37.69
2023-07-11T12:16:39.944Z,37.58
2023-07-11T12:17:25.956Z,37.51
2023-07-11T12:18:24.802Z,37.40
2023-07-11T12:19:24.792Z,37.29
2023-07-11T12:20:24.762Z,37.27
2023-07-11T12:21:24.771Z,37.21
2023-07-11T12:22:24.726Z,37.13
2023-07-11T12:23:38.806Z,37.07
2023-07-11T12:24:42.265Z,37.06
2023-07-11T12:25:25.686Z,37.01
2023-07-11T12:26:24.656Z,37.02
2023-07-11T12:27:24.680Z,37.04
2023-07-11T12:28:24.637Z,37.00
2023-07-11T12:29:24.607Z,36.99
2023-07-11T12:30:24.572Z,36.91
2023-07-11T12:31:24.582Z,36.95
2023-07-11T12:32:24.527Z,36.92
2023-07-11T12:33:24.593Z,36.91
2023-07-11T12:34:24.483Z,36.85
2023-07-11T12:35:24.443Z,36.83
2023-07-11T12:36:24.484Z,36.81
2023-07-11T12:37:24.448Z,36.85
2023-07-11T12:38:24.441Z,36.84
2023-07-11T12:39:24.348Z,36.87
2023-07-11T12:40:24.309Z,36.85
2023-07-11T12:41:34.927Z,36.90
2023-07-11T12:42:25.267Z,36.86
2023-07-11T12:43:24.238Z,36.90
2023-07-11T12:44:24.227Z,36.97
2023-07-11T12:45:24.199Z,36.89
2023-07-11T12:46:24.209Z,36.96
2023-07-11T12:47:24.183Z,37.00
2023-07-11T12:48:24.100Z,37.03
2023-07-11T12:49:24.105Z,37.07
2023-07-11T12:50:24.063Z,37.06
2023-07-11T12:51:24.034Z,37.15
2023-07-11T12:52:24.011Z,37.14
2023-07-11T12:53:23.972Z,37.21
2023-07-11T12:54:23.944Z,37.18
2023-07-11T12:55:23.928Z,37.19
2023-07-11T12:56:23.906Z,37.21
2023-07-11T12:57:23.864Z,37.18
2023-07-11T12:58:23.830Z,37.18